Time;durP1;ratioP1;P1;durP2;ratioP2;P2;SDS_P1;SDS_P2;PMS_P1;PMS_P2;Temp;Humidity;BMP_temperature;BMP_pressure;BME280_temperature;BME280_humidity;BME280_pressure;Samples;Min_cycle;Max_cycle;Signal;HPM_P1;HPM_P2
2023/08/30 00:02:09;;;;;;;;;;;;;;;19.01;90.41;100052.64;104921;1270;125041;-77
2023/08/30 00:04:36;;;;;;;;;;;;;;;19.02;90.48;100055.48;105128;1273;61396;-78
2023/08/30 00:07:03;;;;;;;;;;;;;;;19.02;90.40;100060.62;104930;1270;60523;-78
2023/08/30 00:09:29;;;;;;;;;;;;;;;19.03;90.49;100057.93;105811;1272;125676;-78
2023/08/30 00:11:56;;;;;;;;;;;;;;;19.03;90.41;100064.52;105714;1274;61393;-77
2023/08/30 00:14:22;;;;;;;;;;;;;;;19.02;90.41;100062.56;105606;1272;124999;-76
2023/08/30 00:16:48;;;;;;;;;;;;;;;19.01;90.36;100059.40;104946;1273;61326;-77
2023/08/30 00:19:15;;;;;;;;;;;;;;;19.00;90.43;100063.67;105047;1271;61415;-76
2023/08/30 00:21:42;;;;;;;;;;;;;;;19.00;90.55;100064.22;104941;1269;61282;-77
2023/08/30 00:24:09;;;;;;;;;;;;;;;19.00;90.63;100061.91;105089;1271;73846;-79
2023/08/30 00:26:36;;;;;;;;;;;;;;;19.00;90.57;100054.45;105640;1273;124897;-80
2023/08/30 00:29:02;;;;;;;;;;;;;;;19.00;90.55;100047.33;105821;1271;72747;-79
2023/08/30 00:31:29;;;;;;;;;;;;;;;19.00;90.49;100039.15;105640;1270;125184;-77
2023/08/30 00:33:55;;;;;;;;;;;;;;;18.99;90.40;100039.70;104792;1273;59613;-80
2023/08/30 00:36:22;;;;;;;;;;;;;;;19.01;90.68;100035.21;105813;1270;59653;-78
2023/08/30 00:38:49;;;;;;;;;;;;;;;19.02;90.62;100029.69;105263;1268;124827;-79
2023/08/30 00:41:15;;;;;;;;;;;;;;;19.03;90.52;100027.16;105916;1271;72725;-78
2023/08/30 00:43:42;;;;;;;;;;;;;;;19.02;90.47;100030.04;105803;1273;126811;-78
2023/08/30 00:46:09;;;;;;;;;;;;;;;19.00;90.43;100028.30;105944;1273;61202;-78
2023/08/30 00:48:35;;;;;;;;;;;;;;;19.00;90.40;100030.97;105762;1270;74702;-77
2023/08/30 00:51:02;;;;;;;;;;;;;;;19.00;90.46;100030.08;104870;1271;124977;-79
2023/08/30 00:53:31;;;;;;;;;;;;;;;18.99;90.51;100029.55;104983;1276;72725;-79
2023/08/30 00:55:58;;;;;;;;;;;;;;;18.98;90.49;100032.26;104927;1273;125105;-79
2023/08/30 00:58:26;;;;;;;;;;;;;;;18.99;90.47;100032.60;105922;1271;61292;-77
2023/08/30 01:00:53;;;;;;;;;;;;;;;18.99;90.52;100034.36;105126;1268;74765;-77
2023/08/30 01:03:21;;;;;;;;;;;;;;;18.98;90.49;100033.34;105692;1271;125029;-78
2023/08/30 01:05:48;;;;;;;;;;;;;;;18.97;90.55;100029.08;105808;1270;72867;-77
2023/08/30 01:08:14;;;;;;;;;;;;;;;18.98;90.64;100031.38;104944;1273;125072;-78
2023/08/30 01:10:44;;;;;;;;;;;;;;;18.97;90.56;100029.44;105115;1271;61362;-78
2023/08/30 01:13:12;;;;;;;;;;;;;;;18.97;90.64;100024.45;104753;1273;74656;-76
2023/08/30 01:15:39;;;;;;;;;;;;;;;18.97;90.57;100028.55;104727;1271;124858;-76
2023/08/30 01:18:06;;;;;;;;;;;;;;;18.97;90.57;100029.79;105066;1274;71254;-77
2023/08/30 01:20:34;;;;;;;;;;;;;;;18.97;90.69;100026.05;104796;1271;125373;-77
2023/08/30 01:23:03;;;;;;;;;;;;;;;18.97;90.69;100023.02;105003;1271;61227;-78
2023/08/30 01:25:49;;;;;;;;;;;;;;;18.96;90.60;100017.89;104883;1271;125665;-79
2023/08/30 01:28:16;;;;;;;;;;;;;;;18.94;90.55;100017.58;104271;1282;64751;-78
2023/08/30 01:30:43;;;;;;;;;;;;;;;18.91;90.47;100013.58;103968;1280;72641;-78
2023/08/30 01:33:09;;;;;;;;;;;;;;;18.89;90.58;100007.56;104547;1281;124936;-78
2023/08/30 01:35:37;;;;;;;;;;;;;;;18.87;90.66;100002.27;104972;1283;61365;-78
2023/08/30 01:38:04;;;;;;;;;;;;;;;18.86;90.60;99998.57;104746;1278;126726;-79
2023/08/30 01:40:32;;;;;;;;;;;;;;;18.82;90.61;99996.66;104906;1282;64712;-79
2023/08/30 01:42:58;;;;;;;;;;;;;;;18.78;90.37;100001.17;104839;1279;74800;-78
2023/08/30 01:45:24;;;;;;;;;;;;;;;18.75;90.50;100001.94;105003;1279;125105;-80
2023/08/30 01:47:52;;;;;;;;;;;;;;;18.72;90.52;99997.56;105092;1281;59676;-79
2023/08/30 01:50:20;;;;;;;;;;;;;;;18.70;90.58;100002.77;104795;1279;125441;-80
2023/08/30 01:52:48;;;;;;;;;;;;;;;18.68;90.55;100005.47;104928;1277;64614;-80
2023/08/30 01:55:15;;;;;;;;;;;;;;;18.65;90.66;100006.24;105078;1281;70142;-81
2023/08/30 01:57:41;;;;;;;;;;;;;;;18.63;90.65;100005.92;104690;1277;125898;-80
2023/08/30 02:00:08;;;;;;;;;;;;;;;18.62;90.81;100004.17;105075;1282;61394;-80
2023/08/30 02:02:35;;;;;;;;;;;;;;;18.63;90.91;100004.69;104840;1279;126688;-80
2023/08/30 02:05:02;;;;;;;;;;;;;;;18.62;90.90;100008.60;105090;1270;65407;-78
2023/08/30 02:07:30;;;;;;;;;;;;;;;18.62;90.89;100007.91;104916;1273;125015;-78
2023/08/30 02:10:01;;;;;;;;;;;;;;;18.62;90.98;100005.06;104929;1276;61398;-78
2023/08/30 02:12:40;;;;;;;;;;;;;;;18.63;91.08;99998.99;105009;1270;61518;-79
2023/08/30 02:15:09;;;;;;;;;;;;;;;18.63;91.01;100001.14;104966;1277;124718;-80
2023/08/30 02:17:36;;;;;;;;;;;;;;;18.60;91.02;99999.94;104966;1271;65130;-80
2023/08/30 02:20:03;;;;;;;;;;;;;;;18.59;90.96;99996.59;104971;1271;125051;-79
2023/08/30 02:22:30;;;;;;;;;;;;;;;18.58;91.06;99998.38;104997;1274;61275;-80
2023/08/30 02:24:57;;;;;;;;;;;;;;;18.59;91.20;99993.02;105881;1274;61323;-79
2023/08/30 02:27:24;;;;;;;;;;;;;;;18.60;91.27;99987.32;105842;1270;125279;-81
2023/08/30 02:29:50;;;;;;;;;;;;;;;18.60;91.10;99985.90;105831;1270;59476;-79
2023/08/30 02:32:20;;;;;;;;;;;;;;;18.58;90.95;99987.36;105699;1270;125081;-79
2023/08/30 02:34:49;;;;;;;;;;;;;;;18.57;91.07;99991.48;106009;1270;61388;-80
2023/08/30 02:37:15;;;;;;;;;;;;;;;18.58;91.09;99990.92;105814;1269;61330;-79
2023/08/30 02:39:42;;;;;;;;;;;;;;;18.58;91.14;99988.44;105814;1273;124591;-79
2023/08/30 02:42:08;;;;;;;;;;;;;;;18.59;91.21;99985.74;105928;1268;61302;-78
2023/08/30 02:44:35;;;;;;;;;;;;;;;18.61;91.33;99986.42;104943;1272;125888;-78
2023/08/30 02:47:01;;;;;;;;;;;;;;;18.62;91.29;99983.73;104985;1273;61272;-79
2023/08/30 02:49:28;;;;;;;;;;;;;;;18.63;91.28;99987.08;104837;1276;125084;-78
2023/08/30 02:51:54;;;;;;;;;;;;;;;18.63;91.13;99985.66;105119;1271;61398;-78
2023/08/30 02:54:22;;;;;;;;;;;;;;;18.63;91.23;99990.29;105067;1268;61311;-78
2023/08/30 02:56:48;;;;;;;;;;;;;;;18.64;91.27;99990.80;104927;1270;125730;-79
2023/08/30 02:59:15;;;;;;;;;;;;;;;18.64;91.15;99990.98;105026;1276;59555;-79
2023/08/30 03:01:41;;;;;;;;;;;;;;;18.65;91.12;99997.35;105003;1271;126144;-79
2023/08/30 03:04:08;;;;;;;;;;;;;;;18.65;91.13;99996.83;104963;1273;61170;-80
2023/08/30 03:06:35;;;;;;;;;;;;;;;18.66;91.13;99993.60;105588;1270;66316;-81
2023/08/30 03:09:02;;;;;;;;;;;;;;;18.66;91.07;99985.98;105470;1276;124777;-79
2023/08/30 03:11:29;;;;;;;;;;;;;;;18.64;91.01;99985.81;105589;1270;61256;-82
2023/08/30 03:13:55;;;;;;;;;;;;;;;18.64;91.02;99986.53;105790;1273;125054;-80
2023/08/30 03:16:22;;;;;;;;;;;;;;;18.62;90.80;99988.17;105858;1273;61577;-81
2023/08/30 03:18:49;;;;;;;;;;;;;;;18.60;90.85;99994.25;105937;1273;61285;-81
2023/08/30 03:21:18;;;;;;;;;;;;;;;18.58;90.85;99994.47;105664;1270;124895;-79
2023/08/30 03:23:45;;;;;;;;;;;;;;;18.57;90.80;99995.75;105810;1269;59348;-78
2023/08/30 03:26:12;;;;;;;;;;;;;;;18.56;90.88;99999.68;105788;1268;125241;-79
2023/08/30 03:28:39;;;;;;;;;;;;;;;18.53;90.83;100000.42;105755;1271;73513;-79
2023/08/30 03:31:15;;;;;;;;;;;;;;;18.53;90.87;99996.90;105865;1270;65157;-78
2023/08/30 03:33:41;;;;;;;;;;;;;;;18.52;90.83;100001.89;106180;1273;124629;-80
2023/08/30 03:36:09;;;;;;;;;;;;;;;18.52;90.91;100011.11;105766;1271;59190;-78
2023/08/30 03:38:36;;;;;;;;;;;;;;;18.52;90.99;100007.22;104956;1272;125865;-78
2023/08/30 03:41:03;;;;;;;;;;;;;;;18.53;91.08;100010.94;104902;1269;61243;-79
2023/08/30 03:43:30;;;;;;;;;;;;;;;18.54;91.19;100007.69;104846;1273;127304;-79
2023/08/30 03:45:57;;;;;;;;;;;;;;;18.57;91.20;100017.41;104957;1273;73263;-80
2023/08/30 03:48:24;;;;;;;;;;;;;;;18.59;91.23;100014.71;105943;1271;61541;-80
2023/08/30 03:50:50;;;;;;;;;;;;;;;18.61;91.18;100015.38;105791;1273;125575;-80
2023/08/30 03:53:17;;;;;;;;;;;;;;;18.62;91.12;100011.81;105848;1269;74607;-81
2023/08/30 03:55:43;;;;;;;;;;;;;;;18.62;91.08;100016.95;105830;1273;126115;-81
2023/08/30 03:58:10;;;;;;;;;;;;;;;18.63;90.95;100020.14;105793;1270;61151;-80
2023/08/30 04:00:37;;;;;;;;;;;;;;;18.64;91.04;100025.80;105842;1273;61281;-81
2023/08/30 04:03:04;;;;;;;;;;;;;;;18.67;91.09;100031.61;105708;1277;126367;-80
2023/08/30 04:05:33;;;;;;;;;;;;;;;18.68;90.93;100033.92;105096;1271;74869;-80
2023/08/30 04:08:04;;;;;;;;;;;;;;;18.66;90.80;100032.87;105805;1271;125674;-79
2023/08/30 04:10:40;;;;;;;;;;;;;;;18.65;90.75;100034.48;105921;1270;72684;-79
2023/08/30 04:13:07;;;;;;;;;;;;;;;18.63;90.55;100037.90;105037;1273;61208;-79
2023/08/30 04:15:37;;;;;;;;;;;;;;;18.62;90.57;100039.17;104910;1271;124867;-81
2023/08/30 04:18:04;;;;;;;;;;;;;;;18.63;90.53;100037.89;105901;1273;73242;-80
2023/08/30 04:20:32;;;;;;;;;;;;;;;18.66;90.55;100041.05;105658;1271;126321;-79
2023/08/30 04:23:01;;;;;;;;;;;;;;;18.69;90.56;100037.09;105833;1274;72713;-80
2023/08/30 04:25:28;;;;;;;;;;;;;;;18.70;90.44;100029.60;105697;1271;125816;-80
2023/08/30 04:27:54;;;;;;;;;;;;;;;18.72;90.50;100027.78;105832;1272;60214;-78
2023/08/30 04:30:21;;;;;;;;;;;;;;;18.75;90.61;100029.49;105767;1270;74495;-79
2023/08/30 04:32:47;;;;;;;;;;;;;;;18.79;90.68;100028.54;105703;1271;125135;-78
2023/08/30 04:35:14;;;;;;;;;;;;;;;18.81;90.45;100025.15;105831;1272;72678;-81
2023/08/30 04:37:42;;;;;;;;;;;;;;;18.82;90.35;100019.60;105681;1270;125294;-79
2023/08/30 04:40:09;;;;;;;;;;;;;;;18.86;90.32;100025.58;105898;1270;61192;-80
2023/08/30 04:42:35;;;;;;;;;;;;;;;18.89;90.20;100024.64;105889;1270;74685;-81
2023/08/30 04:45:02;;;;;;;;;;;;;;;18.91;90.26;100027.06;105767;1273;124957;-80
2023/08/30 04:47:30;;;;;;;;;;;;;;;18.93;89.94;100024.91;105819;1272;73144;-80
2023/08/30 04:49:56;;;;;;;;;;;;;;;18.94;89.83;100022.91;105718;1273;125601;-79
2023/08/30 04:52:23;;;;;;;;;;;;;;;18.96;89.93;100021.27;105784;1273;61215;-78
2023/08/30 04:54:49;;;;;;;;;;;;;;;18.99;89.70;100018.90;105881;1273;61497;-79
2023/08/30 04:57:16;;;;;;;;;;;;;;;18.97;89.58;100018.59;105721;1271;125092;-77
2023/08/30 04:59:43;;;;;;;;;;;;;;;18.97;89.40;100018.59;104950;1273;72688;-79
2023/08/30 05:02:09;;;;;;;;;;;;;;;18.96;89.24;100016.14;104934;1276;125963;-80
2023/08/30 05:04:36;;;;;;;;;;;;;;;18.94;89.24;100008.69;104836;1273;61265;-79
2023/08/30 05:07:03;;;;;;;;;;;;;;;18.94;89.16;100008.70;105078;1273;73195;-79
2023/08/30 05:09:34;;;;;;;;;;;;;;;18.94;88.91;100008.69;104945;1270;124847;-81
2023/08/30 05:12:00;;;;;;;;;;;;;;;18.89;88.62;100010.58;105931;1272;71504;-81
2023/08/30 05:14:27;;;;;;;;;;;;;;;18.91;88.97;100014.64;105491;1274;124990;-82
2023/08/30 05:16:53;;;;;;;;;;;;;;;18.91;88.73;100019.24;105817;1273;61978;-82
2023/08/30 05:19:20;;;;;;;;;;;;;;;18.92;88.77;100026.16;105809;1270;126037;-77
2023/08/30 05:21:46;;;;;;;;;;;;;;;18.95;88.87;100034.80;105864;1270;65646;-79
2023/08/30 05:24:13;;;;;;;;;;;;;;;18.96;88.60;100035.14;104826;1276;73390;-80
2023/08/30 05:26:39;;;;;;;;;;;;;;;18.94;88.44;100031.64;105468;1268;124765;-87
2023/08/30 05:29:06;;;;;;;;;;;;;;;18.97;88.54;100028.02;105531;1274;60075;-86
2023/08/30 05:31:32;;;;;;;;;;;;;;;19.05;88.66;100025.36;105651;1284;125190;-88
2023/08/30 05:33:59;;;;;;;;;;;;;;;19.12;88.46;100022.18;105737;1272;65112;-79
2023/08/30 05:36:25;;;;;;;;;;;;;;;19.18;88.37;100024.36;105845;1273;61325;-80
2023/08/30 05:38:52;;;;;;;;;;;;;;;19.23;88.23;100026.05;105889;1271;125334;-80
2023/08/30 05:41:18;;;;;;;;;;;;;;;19.23;87.83;100028.16;105942;1270;61240;-84
2023/08/30 05:43:48;;;;;;;;;;;;;;;19.21;87.74;100029.11;105730;1274;125237;-79
2023/08/30 05:46:15;;;;;;;;;;;;;;;19.25;87.89;100030.43;105929;1273;66268;-81
2023/08/30 05:48:42;;;;;;;;;;;;;;;19.28;87.62;100037.14;105792;1270;72717;-80
2023/08/30 05:51:08;;;;;;;;;;;;;;;19.23;87.27;100037.42;105672;1274;125090;-81
2023/08/30 05:53:35;;;;;;;;;;;;;;;19.19;87.38;100037.14;105876;1274;60031;-81
2023/08/30 05:56:01;;;;;;;;;;;;;;;19.17;87.37;100035.76;105911;1270;125397;-82
2023/08/30 05:58:28;;;;;;;;;;;;;;;19.16;87.34;100040.59;105931;1269;61290;-82
2023/08/30 06:00:55;;;;;;;;;;;;;;;19.14;87.29;100046.48;105842;1270;61386;-82
2023/08/30 06:03:21;;;;;;;;;;;;;;;19.13;87.35;100048.67;105737;1270;124913;-81
2023/08/30 06:05:48;;;;;;;;;;;;;;;19.10;87.31;100043.93;105687;1270;60388;-81
2023/08/30 06:08:17;;;;;;;;;;;;;;;19.08;87.37;100046.10;105813;1270;125494;-81
2023/08/30 06:10:44;;;;;;;;;;;;;;;19.05;87.39;100048.47;105962;1273;64663;-86
2023/08/30 06:13:10;;;;;;;;;;;;;;;19.03;87.39;100047.98;105866;1273;72199;-84
2023/08/30 06:15:38;;;;;;;;;;;;;;;19.03;87.40;100049.04;105960;1269;125045;-82
2023/08/30 06:18:08;;;;;;;;;;;;;;;18.99;87.29;100052.68;106279;1272;61304;-82
2023/08/30 06:20:34;;;;;;;;;;;;;;;18.96;87.34;100051.33;105701;1273;124797;-82
2023/08/30 06:23:02;;;;;;;;;;;;;;;18.98;87.47;100056.98;105888;1273;61257;-80
2023/08/30 06:25:31;;;;;;;;;;;;;;;19.01;87.57;100057.80;105522;1274;125269;-86
2023/08/30 06:27:58;;;;;;;;;;;;;;;19.02;87.53;100055.30;105902;1273;61242;-83
2023/08/30 06:30:25;;;;;;;;;;;;;;;19.05;87.74;100061.63;105915;1273;61260;-83
2023/08/30 06:32:52;;;;;;;;;;;;;;;19.07;87.56;100061.60;105404;1277;125231;-82
2023/08/30 06:35:18;;;;;;;;;;;;;;;19.07;87.38;100062.30;105721;1273;66483;-81
2023/08/30 06:37:45;;;;;;;;;;;;;;;19.10;87.54;100057.45;105602;1270;125125;-79
2023/08/30 06:40:12;;;;;;;;;;;;;;;19.14;87.55;100055.75;105213;1270;59892;-79
2023/08/30 06:42:42;;;;;;;;;;;;;;;19.21;87.63;100055.95;105141;1273;59640;-81
2023/08/30 06:45:08;;;;;;;;;;;;;;;19.26;87.42;100054.44;105750;1276;126615;-80
2023/08/30 06:47:35;;;;;;;;;;;;;;;19.29;87.33;100058.11;105829;1274;66015;-79
2023/08/30 06:50:01;;;;;;;;;;;;;;;19.36;87.42;100058.48;105544;1270;125537;-80
2023/08/30 06:52:28;;;;;;;;;;;;;;;19.45;87.37;100061.84;105737;1270;61403;-80
2023/08/30 06:54:54;;;;;;;;;;;;;;;19.53;87.28;100062.55;105088;1270;61332;-80
2023/08/30 06:57:23;;;;;;;;;;;;;;;19.62;87.09;100063.77;104982;1269;124904;-81
2023/08/30 06:59:50;;;;;;;;;;;;;;;19.69;86.83;100064.33;105917;1271;66047;-80
2023/08/30 07:02:16;;;;;;;;;;;;;;;19.72;86.66;100066.39;105610;1275;125202;-80
2023/08/30 07:08:10;;;;;;;;;;;;;;;19.87;86.25;100070.49;105587;1273;125062;-79
2023/08/30 07:10:37;;;;;;;;;;;;;;;19.96;85.99;100064.59;105731;1270;61614;-81
2023/08/30 07:13:04;;;;;;;;;;;;;;;20.08;86.00;100063.77;105707;1270;65341;-85
2023/08/30 07:15:31;;;;;;;;;;;;;;;20.23;85.82;100059.80;105679;1270;124987;-85
2023/08/30 07:17:57;;;;;;;;;;;;;;;20.36;85.47;100064.64;105439;1273;59720;-84
2023/08/30 07:20:24;;;;;;;;;;;;;;;20.42;84.98;100065.56;105643;1270;125659;-85
2023/08/30 07:22:51;;;;;;;;;;;;;;;20.43;84.64;100065.54;105812;1270;74486;-85
2023/08/30 07:25:18;;;;;;;;;;;;;;;20.50;84.58;100067.12;105578;1270;125540;-85
2023/08/30 07:27:45;;;;;;;;;;;;;;;20.59;84.36;100074.39;105353;1268;61480;-86
2023/08/30 07:30:11;;;;;;;;;;;;;;;20.68;84.07;100076.84;105719;1270;61258;-86
2023/08/30 07:32:40;;;;;;;;;;;;;;;20.68;83.60;100076.84;105629;1268;125378;-85
2023/08/30 07:35:06;;;;;;;;;;;;;;;20.76;83.61;100081.77;105869;1270;74683;-81
2023/08/30 07:37:34;;;;;;;;;;;;;;;20.78;83.04;100086.55;105836;1270;125416;-87
2023/08/30 07:40:00;;;;;;;;;;;;;;;20.77;82.85;100090.50;105999;1270;72785;-85
2023/08/30 07:42:27;;;;;;;;;;;;;;;20.75;82.38;100096.25;106026;1270;59927;-87
2023/08/30 07:44:53;;;;;;;;;;;;;;;20.69;82.28;100099.44;105901;1270;189304;-85
2023/08/30 07:47:20;;;;;;;;;;;;;;;20.68;82.25;100102.31;105785;1270;74810;-85
2023/08/30 07:49:46;;;;;;;;;;;;;;;20.69;82.11;100106.77;105928;1270;66323;-83
2023/08/30 07:52:13;;;;;;;;;;;;;;;20.69;82.30;100105.33;105923;1273;61478;-86
2023/08/30 07:54:43;;;;;;;;;;;;;;;20.70;82.06;100108.70;105891;1270;60457;-85
2023/08/30 07:57:09;;;;;;;;;;;;;;;20.65;81.98;100105.42;105573;1273;125706;-88
2023/08/30 07:59:36;;;;;;;;;;;;;;;20.65;81.71;100107.40;106013;1269;61262;-83
2023/08/30 08:02:07;;;;;;;;;;;;;;;20.64;81.89;100111.01;105965;1269;124997;-87
2023/08/30 08:05:02;;;;;;;;;;;;;;;20.69;82.18;100110.50;105779;1270;71591;-88
2023/08/30 08:07:42;;;;;;;;;;;;;;;20.73;82.11;100105.40;105651;1270;125076;-86
2023/08/30 08:10:12;;;;;;;;;;;;;;;20.69;81.80;100106.92;105836;1270;61217;-89
2023/08/30 08:12:42;;;;;;;;;;;;;;;20.63;81.77;100105.51;105849;1273;73446;-86
2023/08/30 08:15:08;;;;;;;;;;;;;;;20.61;81.77;100108.05;105832;1270;125187;-86
2023/08/30 08:17:35;;;;;;;;;;;;;;;20.59;81.86;100110.39;105882;1270;71383;-86
2023/08/30 08:20:02;;;;;;;;;;;;;;;20.60;81.77;100109.48;105567;1274;126041;-85
2023/08/30 08:22:29;;;;;;;;;;;;;;;20.65;81.73;100108.12;105887;1270;59703;-85
2023/08/30 08:24:56;;;;;;;;;;;;;;;20.69;81.80;100103.55;105798;1273;73934;-82
2023/08/30 08:27:26;;;;;;;;;;;;;;;20.74;81.75;100102.70;105764;1273;124992;-81
2023/08/30 08:29:52;;;;;;;;;;;;;;;20.73;81.21;100105.04;105694;1276;71531;-84
2023/08/30 08:32:20;;;;;;;;;;;;;;;20.72;81.20;100110.25;105708;1268;124880;-82
2023/08/30 08:34:46;;;;;;;;;;;;;;;20.76;81.47;100114.05;105632;1270;61399;-82
2023/08/30 08:37:16;;;;;;;;;;;;;;;20.90;81.15;100118.30;105732;1269;74818;-82
2023/08/30 08:39:46;;;;;;;;;;;;;;;20.97;80.85;100118.30;105638;1270;125024;-79
2023/08/30 08:42:22;;;;;;;;;;;;;;;21.13;81.04;100108.20;105675;1269;73471;-84
2023/08/30 08:44:58;;;;;;;;;;;;;;;21.44;80.84;100112.83;105533;1270;126093;-83
2023/08/30 08:47:27;;;;;;;;;;;;;;;21.75;80.43;100116.92;106045;1272;61415;-82
2023/08/30 08:49:54;;;;;;;;;;;;;;;21.89;79.66;100121.48;105716;1270;124468;-81
2023/08/30 08:52:20;;;;;;;;;;;;;;;22.00;79.43;100117.77;105819;1270;61360;-82
2023/08/30 08:54:47;;;;;;;;;;;;;;;22.07;78.67;100120.02;105843;1270;61179;-78
2023/08/30 08:57:13;;;;;;;;;;;;;;;22.07;78.06;100117.86;105134;1273;124831;-81
2023/08/30 08:59:40;;;;;;;;;;;;;;;22.02;77.64;100125.73;105691;1270;61265;-81
2023/08/30 09:02:14;;;;;;;;;;;;;;;21.80;76.81;100129.63;105648;1270;125224;-80
2023/08/30 09:04:41;;;;;;;;;;;;;;;21.54;76.75;100139.52;105783;1284;66583;-79
2023/08/30 09:07:07;;;;;;;;;;;;;;;21.39;76.65;100135.28;105634;1270;61431;-79
2023/08/30 09:09:37;;;;;;;;;;;;;;;21.31;76.82;100141.96;105448;1276;125662;-80
2023/08/30 09:12:06;;;;;;;;;;;;;;;21.24;76.75;100147.86;105667;1270;61366;-82
2023/08/30 09:14:36;;;;;;;;;;;;;;;21.11;76.76;100147.35;105595;1273;125048;-82
2023/08/30 09:17:02;;;;;;;;;;;;;;;21.03;77.01;100146.48;105654;1271;66377;-82
2023/08/30 09:19:38;;;;;;;;;;;;;;;21.06;77.13;100150.34;105678;1270;124528;-82
2023/08/30 09:22:04;;;;;;;;;;;;;;;21.08;77.06;100149.20;105822;1273;61367;-80
2023/08/30 09:24:40;;;;;;;;;;;;;;;21.07;76.91;100151.20;105269;1270;61381;-82
2023/08/30 09:27:06;;;;;;;;;;;;;;;21.09;76.99;100148.80;105782;1273;124992;-82
2023/08/30 09:29:33;;;;;;;;;;;;;;;21.11;76.77;100150.18;105825;1268;64779;-80
2023/08/30 09:32:00;;;;;;;;;;;;;;;21.31;77.19;100149.27;105707;1270;125037;-80
2023/08/30 09:34:27;;;;;;;;;;;;;;;21.51;76.97;100147.83;105835;1270;61366;-78
2023/08/30 09:36:54;;;;;;;;;;;;;;;21.62;76.29;100149.45;105815;1269;62743;-78
2023/08/30 09:39:21;;;;;;;;;;;;;;;21.65;76.05;100152.05;105685;1270;124767;-80
2023/08/30 09:41:49;;;;;;;;;;;;;;;21.63;75.65;100154.96;105807;1272;65019;-81
2023/08/30 09:44:16;;;;;;;;;;;;;;;21.59;75.54;100154.39;105822;1268;124086;-79
2023/08/30 09:46:49;;;;;;;;;;;;;;;21.57;75.22;100156.76;105948;1268;61425;-79
2023/08/30 09:49:18;;;;;;;;;;;;;;;21.57;75.42;100159.43;105945;1270;61215;-80
2023/08/30 09:51:46;;;;;;;;;;;;;;;21.57;75.41;100160.69;105821;1271;124387;-81
2023/08/30 09:54:16;;;;;;;;;;;;;;;21.53;75.55;100158.29;105754;1273;66645;-81
2023/08/30 09:56:43;;;;;;;;;;;;;;;21.47;75.50;100152.39;105833;1273;124181;-81
2023/08/30 09:59:11;;;;;;;;;;;;;;;21.37;75.47;100146.95;105897;1271;61402;-81
2023/08/30 10:01:39;;;;;;;;;;;;;;;21.32;75.44;100145.48;105822;1270;125285;-80
2023/08/30 10:04:06;;;;;;;;;;;;;;;21.20;75.15;100150.29;105842;1270;74804;-80
2023/08/30 10:06:33;;;;;;;;;;;;;;;20.95;74.99;100147.07;105946;1272;66096;-80
2023/08/30 10:09:03;;;;;;;;;;;;;;;20.70;75.26;100151.65;105604;1270;124902;-81
2023/08/30 10:11:33;;;;;;;;;;;;;;;20.58;75.73;100153.72;105758;1270;61320;-81
2023/08/30 10:14:20;;;;;;;;;;;;;;;20.54;76.05;100156.67;105740;1270;127009;-83
2023/08/30 10:16:48;;;;;;;;;;;;;;;20.57;76.25;100162.13;105611;1276;73351;-80
2023/08/30 10:19:22;;;;;;;;;;;;;;;20.67;76.57;100167.81;105151;1277;66095;-80
2023/08/30 10:21:48;;;;;;;;;;;;;;;20.77;76.48;100166.98;104904;1276;124995;-83
2023/08/30 10:24:22;;;;;;;;;;;;;;;20.84;76.34;100167.86;105846;1270;61466;-80
2023/08/30 10:26:49;;;;;;;;;;;;;;;20.88;76.12;100170.61;105742;1270;124961;-79
2023/08/30 10:29:15;;;;;;;;;;;;;;;20.92;75.84;100168.19;105880;1270;73378;-81
2023/08/30 10:31:42;;;;;;;;;;;;;;;21.00;75.80;100174.05;105745;1270;125576;-81
2023/08/30 10:34:16;;;;;;;;;;;;;;;21.01;75.46;100169.55;105886;1270;70184;-81
2023/08/30 10:36:43;;;;;;;;;;;;;;;20.98;75.52;100169.27;105887;1274;61392;-82
2023/08/30 10:39:13;;;;;;;;;;;;;;;21.02;75.63;100167.59;105475;1271;124216;-80
2023/08/30 10:41:56;;;;;;;;;;;;;;;21.01;75.30;100167.23;105879;1268;75495;-80
2023/08/30 10:44:22;;;;;;;;;;;;;;;20.97;75.24;100170.02;105890;1270;124110;-81
2023/08/30 10:46:54;;;;;;;;;;;;;;;20.90;75.21;100167.90;105878;1273;71475;-80
2023/08/30 10:49:21;;;;;;;;;;;;;;;20.82;75.20;100169.00;105843;1271;62024;-83
2023/08/30 10:51:58;;;;;;;;;;;;;;;20.81;75.40;100173.48;105645;1269;125109;-81
2023/08/30 10:54:25;;;;;;;;;;;;;;;20.81;75.51;100172.60;105733;1270;73409;-82
2023/08/30 10:56:51;;;;;;;;;;;;;;;20.78;75.44;100174.27;105730;1273;125000;-82
2023/08/30 10:59:21;;;;;;;;;;;;;;;20.77;75.44;100174.46;106120;1270;72639;-80
2023/08/30 11:01:48;;;;;;;;;;;;;;;20.71;75.38;100168.39;105788;1270;125467;-79
2023/08/30 11:04:15;;;;;;;;;;;;;;;20.59;75.20;100167.09;105845;1270;61311;-79
2023/08/30 11:06:45;;;;;;;;;;;;;;;20.52;75.51;100166.36;105587;1268;74748;-83
2023/08/30 11:09:21;;;;;;;;;;;;;;;20.56;75.82;100169.09;106104;1269;124983;-82
2023/08/30 11:11:48;;;;;;;;;;;;;;;20.63;75.94;100165.75;105778;1270;72575;-82
2023/08/30 11:14:29;;;;;;;;;;;;;;;20.65;75.75;100163.02;105675;1270;125021;-82
2023/08/30 11:17:04;;;;;;;;;;;;;;;20.67;75.82;100167.08;105721;1273;61245;-83
2023/08/30 11:19:33;;;;;;;;;;;;;;;20.67;75.68;100165.48;105926;1273;73207;-81
2023/08/30 11:22:00;;;;;;;;;;;;;;;20.61;75.63;100163.30;105682;1269;68430;-82
2023/08/30 11:24:26;;;;;;;;;;;;;;;20.58;75.60;100164.79;105857;1267;72747;-82
2023/08/30 11:26:53;;;;;;;;;;;;;;;20.52;75.69;100161.71;105666;1270;124224;-82
2023/08/30 11:29:23;;;;;;;;;;;;;;;20.50;75.74;100156.05;105781;1268;61387;-82
2023/08/30 11:31:50;;;;;;;;;;;;;;;20.49;75.87;100156.96;105725;1268;124457;-81
2023/08/30 11:34:21;;;;;;;;;;;;;;;20.50;75.74;100156.23;105634;1268;65103;-82
2023/08/30 11:36:48;;;;;;;;;;;;;;;20.44;75.51;100158.54;105885;1270;72674;-83
2023/08/30 11:39:15;;;;;;;;;;;;;;;20.34;75.56;100153.08;105699;1270;124477;-83
2023/08/30 11:41:42;;;;;;;;;;;;;;;20.30;75.68;100156.38;105829;1270;61297;-79
2023/08/30 11:44:09;;;;;;;;;;;;;;;20.24;75.66;100151.17;105517;1269;126052;-79
2023/08/30 11:46:36;;;;;;;;;;;;;;;20.24;75.95;100154.02;105820;1270;61247;-79
2023/08/30 11:49:02;;;;;;;;;;;;;;;20.28;76.00;100148.06;105742;1273;61316;-80
2023/08/30 11:51:29;;;;;;;;;;;;;;;20.34;75.99;100139.19;105525;1271;126801;-82
2023/08/30 11:53:57;;;;;;;;;;;;;;;20.39;76.02;100134.98;105586;1270;61399;-82
2023/08/30 11:56:25;;;;;;;;;;;;;;;20.37;75.76;100131.62;105680;1269;125332;-82
2023/08/30 11:58:54;;;;;;;;;;;;;;;20.37;75.90;100130.02;105719;1270;65933;-81
2023/08/30 12:01:21;;;;;;;;;;;;;;;20.39;75.69;100132.27;105673;1269;73320;-81
2023/08/30 12:03:50;;;;;;;;;;;;;;;20.36;75.52;100134.14;105583;1270;125502;-80
2023/08/30 12:06:17;;;;;;;;;;;;;;;20.37;75.68;100138.39;105668;1270;61295;-80
2023/08/30 12:08:43;;;;;;;;;;;;;;;20.30;75.39;100136.08;105583;1270;124362;-80
2023/08/30 12:11:29;;;;;;;;;;;;;;;20.29;75.87;100132.52;105658;1270;65565;-81
2023/08/30 12:14:01;;;;;;;;;;;;;;;20.38;75.78;100134.09;105425;1269;124507;-80
2023/08/30 12:16:28;;;;;;;;;;;;;;;20.36;75.64;100133.77;105752;1270;61243;-80
2023/08/30 12:18:55;;;;;;;;;;;;;;;20.32;75.59;100137.43;105800;1270;60930;-82
2023/08/30 12:21:21;;;;;;;;;;;;;;;20.27;75.57;100137.05;105609;1269;124829;-81
2023/08/30 12:23:48;;;;;;;;;;;;;;;20.23;75.63;100137.30;105750;1268;61300;-80
2023/08/30 12:26:14;;;;;;;;;;;;;;;20.19;75.41;100138.29;105611;1271;125145;-80
2023/08/30 12:28:44;;;;;;;;;;;;;;;20.09;75.62;100129.11;105805;1269;61307;-81
2023/08/30 12:31:10;;;;;;;;;;;;;;;20.09;75.79;100129.83;105711;1270;61297;-81